Reno, NV

11:46 AM PDT on September 16, 2014 (GMT -0700)
MidTown | Change Station
CLOSE
Current Station
Personal Weather Station
Location: Reno, NV
Elevation: 4491 ft
Nearby Weather Stations

Elev 4491 ft 39.52 °N, 119.81 °W | Updated 11 minutes ago

Partly Cloudy
Partly Cloudy
81.5 °F
Feels Like 80 °F
N
-
Wind Variable Wind from North

Today
High -- | Low -- °F
--% Chance of Precip.
Yesterday
High -- | Low -- °F
Precip. -- in
6:41 AM 7:05 PM
Last Quarter, 43% visible
Pressure 29.87 in
Visibility 10.0 miles
Clouds Few 8500 ft
Heat Index 80 °F
Dew Point 52 °F
Humidity 33%
Rainfall 0.00 in
Snow Depth 3 in , 0 in , 0 in
UV 6 out of 12
Pollen 7.40 out of 12
Air Quality Not available.
Flu Activity Not available.
METAR KRNO 161755Z 18017G23KT 10SM FEW085 29/07 A3005 RMK AO2 SLP115 T02890067 10294 20150 58010

More Conditions Fewer Conditions

Pressure 29.87 in
Visibility 10.0 miles
Clouds Few 8500 ft
Heat Index 80 °F
Dew Point 52 °F
Humidity 33%
Rainfall 0.00 in
Snow Depth 3 in , 0 in , 0 in
UV 6 out of 12
Pollen 7.40 out of 12
Air Quality Not available.
Flu Activity Not available.
METAR KRNO 161755Z 18017G23KT 10SM FEW085 29/07 A3005 RMK AO2 SLP115 T02890067 10294 20150 58010

More Conditions Fewer Conditions

10-Day Weather Forecast

Almanac

Astronomy

Sep. 16, 2014 Rise Set
Actual Time 6:41 AM PDT 7:05 PM PDT
Civil Twilight 6:14 AM PDT 7:32 PM PDT
Nautical Twilight 5:42 AM PDT 8:04 PM PDT
Astronomical Twilight 5:10 AM PDT 8:36 PM PDT
Moon No Moon Rise 2:32 PM PDT
Length of Visible Light 13h 18m
Length of Day
12h 24m
Tomorrow will be 2m 33s shorter.
Last Quarter, 43% of the Moon is Illuminated
Today
Last Quarter
Sep 24
New
Oct 1
First Quarter
Oct 8
Full
Oct 15
Last Quarter

Today's Extremes

State Highs State Lows

Community

WunderPhotos

Upload Photos

1,753,856 photos uploaded!

WunderBlogs® & News

Nearby

Snow Depth

Station Depth Elevation
Jacks Peak 3 in 8420 ft
Granite Peak 0 in 7800 ft
Diamond Peak 0 in 8000 ft
Buckskin Lower 2 in 6700 ft
Marlette Lake 0 in 8000 ft

Earthquake Activity

City Distance Mag. Time & Date
No recent earthquake activity has been reported nearby.
Minimum magnitude displayed is 2.5.

Coastal Water Temperatures

Place Temperature
No Stations Reporting

Nearby Weather Stations